Terminal Aerodrome Forecast
Issued by NWS

Home | Current Version | Previous Version | Text Only | Print | Product List | Glossary On
Versions: 1 2 3 4 5 6 7 8 9 10 11 12 13 14 15 16 17 18 19 20 21 22 23 24 25 26 27 28
349
FTUS46 KEKA 101725
TAFCEC
TAF
KCEC 101725Z 1018/1118 VRB04KT P6SM VCSH SCT015 OVC040
     FM102000 29008KT P6SM VCSH OVC040
     FM110100 VRB06KT 5SM BR VCSH OVC040
     FM110400 15005KT 5SM -SHRA BR OVC025
     FM111500 18011KT 5SM -SHRA BR OVC025=

USA.gov is the U.S. government's official web portal to all federal, state and local government web resources and services.